createdAt,value
2019-05-17T00:02:09.711Z,10.47
2019-05-17T00:07:16.680Z,11.53
2019-05-17T00:12:24.205Z,11.30
2019-05-17T00:17:29.759Z,10.20
2019-05-17T00:22:36.549Z,11.40
2019-05-17T00:27:42.517Z,10.90
2019-05-17T00:32:48.115Z,11.20
2019-05-17T00:37:59.955Z,12.37
2019-05-17T00:43:06.761Z,11.40
2019-05-17T00:48:13.755Z,11.00
2019-05-17T00:53:19.220Z,12.10
2019-05-17T00:58:26.276Z,13.47
2019-05-17T01:03:32.384Z,11.50
2019-05-17T01:08:40.083Z,11.77
2019-05-17T01:13:46.682Z,12.43
2019-05-17T01:18:52.502Z,11.33
2019-05-17T01:23:58.067Z,13.23
2019-05-17T01:29:06.675Z,12.43
2019-05-17T01:34:12.670Z,12.83
2019-05-17T01:39:21.395Z,11.63
2019-05-17T01:44:27.217Z,12.10
2019-05-17T01:49:37.805Z,12.10
2019-05-17T01:54:43.891Z,11.80
2019-05-17T01:59:49.426Z,11.23
2019-05-17T02:04:56.936Z,11.43
2019-05-17T02:10:02.618Z,12.27
2019-05-17T02:15:16.417Z,12.80
2019-05-17T02:20:28.776Z,13.57
2019-05-17T02:25:37.627Z,14.57
2019-05-17T02:30:44.080Z,16.70
2019-05-17T02:35:53.394Z,14.23
2019-05-17T02:40:59.010Z,12.50
2019-05-17T02:46:04.956Z,12.20
2019-05-17T02:51:13.142Z,11.77
2019-05-17T02:56:23.801Z,13.10
2019-05-17T03:01:29.273Z,11.03
2019-05-17T03:06:36.268Z,12.13
2019-05-17T03:11:43.609Z,12.10
2019-05-17T03:16:49.102Z,12.20
2019-05-17T03:21:55.262Z,10.90
2019-05-17T03:27:02.987Z,11.37
2019-05-17T03:32:16.762Z,12.90
2019-05-17T03:37:19.378Z,11.90
2019-05-17T03:42:26.751Z,14.17
2019-05-17T03:47:33.394Z,13.60
2019-05-17T03:52:44.369Z,15.40
2019-05-17T03:57:53.007Z,13.43
2019-05-17T04:02:58.323Z,13.53
2019-05-17T04:08:07.724Z,13.50
2019-05-17T04:13:13.479Z,14.07
2019-05-17T04:18:23.553Z,13.63
2019-05-17T04:23:28.337Z,15.40
2019-05-17T04:28:33.960Z,14.63
2019-05-17T04:33:42.793Z,12.50
2019-05-17T04:38:58.559Z,13.57
2019-05-17T04:44:06.259Z,14.47
2019-05-17T04:49:13.726Z,16.00
2019-05-17T04:54:22.514Z,16.33
2019-05-17T04:59:27.101Z,16.13
2019-05-17T05:04:38.503Z,15.80
2019-05-17T05:09:42.923Z,16.17
2019-05-17T05:14:53.637Z,16.07
2019-05-17T05:19:59.160Z,16.47
2019-05-17T05:25:05.392Z,16.90
2019-05-17T05:30:12.441Z,16.37
2019-05-17T05:35:22.326Z,15.27
2019-05-17T05:40:29.177Z,15.23
2019-05-17T05:45:34.811Z,15.77
2019-05-17T05:50:42.860Z,15.90
2019-05-17T05:55:47.665Z,15.50
2019-05-17T06:00:53.363Z,15.37
2019-05-17T06:06:03.486Z,15.70
2019-05-17T06:11:13.150Z,15.40
2019-05-17T06:16:22.797Z,15.70
2019-05-17T06:21:31.794Z,14.87
2019-05-17T06:26:46.009Z,13.80
2019-05-17T06:31:52.029Z,12.90
2019-05-17T06:36:58.220Z,12.70
2019-05-17T06:42:04.534Z,10.80
2019-05-17T06:47:11.922Z,10.90
2019-05-17T06:52:17.442Z,11.47
2019-05-17T06:57:23.411Z,13.03
2019-05-17T07:02:31.863Z,12.20
2019-05-17T07:07:41.643Z,11.60
2019-05-17T07:12:58.302Z,12.37
2019-05-17T07:17:59.962Z,11.50
2019-05-17T07:23:05.207Z,12.27
2019-05-17T07:28:10.867Z,9.97
2019-05-17T07:33:17.021Z,9.50
2019-05-17T07:38:25.411Z,10.10
2019-05-17T07:43:30.936Z,11.30
2019-05-17T07:48:40.517Z,12.33
2019-05-17T07:53:49.309Z,12.80
2019-05-17T07:58:57.384Z,11.17
2019-05-17T08:04:02.986Z,11.90
2019-05-17T08:09:13.761Z,11.10
2019-05-17T08:14:29.258Z,12.93
2019-05-17T08:19:29.742Z,12.43
2019-05-17T08:24:36.781Z,12.20
2019-05-17T08:34:52.402Z,10.20
2019-05-17T08:40:00.097Z,9.50
2019-05-17T08:45:06.127Z,8.40
2019-05-17T08:50:11.924Z,8.90
2019-05-17T08:55:17.526Z,9.00
2019-05-17T09:00:26.173Z,10.00
2019-05-17T09:05:37.481Z,9.67
2019-05-17T09:10:43.390Z,6.53
2019-05-17T09:15:49.979Z,8.23
2019-05-17T09:21:00.565Z,6.97
2019-05-17T09:26:12.329Z,7.13
2019-05-17T09:31:20.223Z,5.83
2019-05-17T09:36:25.160Z,6.57
2019-05-17T09:41:31.144Z,5.33
2019-05-17T09:46:36.698Z,5.00
2019-05-17T09:56:49.724Z,5.67
2019-05-17T10:01:57.158Z,5.80
2019-05-17T10:07:03.935Z,6.00
2019-05-17T10:12:12.019Z,6.00
2019-05-17T10:17:18.246Z,6.43
2019-05-17T10:22:24.980Z,5.80
2019-05-17T10:27:31.369Z,5.47
2019-05-17T10:32:36.989Z,5.47
2019-05-17T10:37:42.918Z,6.27
2019-05-17T10:42:50.093Z,6.07
2019-05-17T10:47:55.842Z,6.33
2019-05-17T10:53:01.746Z,6.10
2019-05-17T10:58:09.957Z,6.03
2019-05-17T11:03:15.137Z,5.43
2019-05-17T11:08:20.644Z,5.97
2019-05-17T11:13:27.522Z,6.93
2019-05-17T11:18:35.097Z,6.40
2019-05-17T11:23:41.712Z,6.40
2019-05-17T11:33:50.177Z,7.87
2019-05-17T11:38:55.718Z,7.60
2019-05-17T11:44:03.186Z,8.13
2019-05-17T11:49:11.467Z,7.57
2019-05-17T11:54:17.033Z,7.87
2019-05-17T11:59:22.555Z,7.73
2019-05-17T12:09:37.928Z,8.77
2019-05-17T12:14:45.227Z,8.00
2019-05-17T12:19:50.866Z,9.47
2019-05-17T12:24:58.021Z,9.10
2019-05-17T12:30:04.320Z,9.30
2019-05-17T12:35:10.557Z,8.73
2019-05-17T12:40:17.211Z,9.50
2019-05-17T12:45:22.826Z,8.90
2019-05-17T12:50:28.465Z,9.30
2019-05-17T12:55:34.050Z,8.80
2019-05-17T13:00:39.686Z,8.80
2019-05-17T13:05:45.260Z,8.90
2019-05-17T13:10:50.791Z,9.33
2019-05-17T13:15:56.357Z,10.87
2019-05-17T13:21:05.757Z,10.70
2019-05-17T13:26:10.394Z,9.83
2019-05-17T13:31:16.450Z,9.60
2019-05-17T13:36:23.294Z,9.90
2019-05-17T13:41:29.906Z,8.77
2019-05-17T13:46:38.398Z,9.70
2019-05-17T13:51:43.980Z,10.30
2019-05-17T13:56:49.621Z,10.33
2019-05-17T14:01:55.600Z,11.13
2019-05-17T14:07:01.646Z,9.53
2019-05-17T14:12:08.775Z,10.17
2019-05-17T14:17:14.472Z,14.70
2019-05-17T14:22:21.152Z,10.70
2019-05-17T14:27:26.792Z,11.40
2019-05-17T14:32:32.380Z,11.60
2019-05-17T14:37:37.981Z,11.37
2019-05-17T14:42:43.584Z,13.97
2019-05-17T14:47:52.002Z,12.33
2019-05-17T14:52:58.353Z,11.87
2019-05-17T14:58:04.269Z,12.73
2019-05-17T15:03:09.901Z,12.50
2019-05-17T15:08:15.425Z,13.20
2019-05-17T15:13:20.990Z,13.93
2019-05-17T15:18:26.547Z,14.80
2019-05-17T15:23:32.534Z,11.30
2019-05-17T15:28:38.125Z,13.33
2019-05-17T15:33:43.639Z,10.90
2019-05-17T15:38:49.500Z,9.50
2019-05-17T15:43:55.107Z,9.90
2019-05-17T15:49:01.453Z,10.43
2019-05-17T15:54:08.779Z,10.57
2019-05-17T15:59:14.423Z,11.53
2019-05-17T16:04:23.473Z,10.70
2019-05-17T16:19:42.268Z,8.40
2019-05-17T16:24:53.891Z,8.20
2019-05-17T16:30:00.569Z,7.80
2019-05-17T16:35:08.178Z,9.00
2019-05-17T16:40:13.870Z,8.00
2019-05-17T16:45:25.581Z,9.27
2019-05-17T16:50:31.165Z,8.97
2019-05-17T16:55:39.868Z,9.33
2019-05-17T17:00:46.946Z,6.47
2019-05-17T17:05:52.523Z,5.80
2019-05-17T17:10:58.065Z,6.03
2019-05-17T17:16:05.605Z,5.50
2019-05-17T17:21:15.410Z,5.33
2019-05-17T17:26:24.567Z,5.67
2019-05-17T17:31:42.230Z,5.10
2019-05-17T17:36:48.032Z,4.93
2019-05-17T17:41:54.462Z,4.67
2019-05-17T17:47:00.728Z,4.50
2019-05-17T17:52:07.658Z,3.13
2019-05-17T17:57:13.663Z,3.30
2019-05-17T18:02:19.383Z,3.83
2019-05-17T18:07:27.022Z,3.40
2019-05-17T18:12:32.610Z,3.23
2019-05-17T18:17:39.481Z,3.20
2019-05-17T18:22:46.618Z,3.23
2019-05-17T18:28:01.307Z,3.87
2019-05-17T18:33:09.515Z,2.90
2019-05-17T18:38:17.502Z,4.60
2019-05-17T18:43:23.408Z,3.30
2019-05-17T18:48:33.253Z,3.60
2019-05-17T18:53:45.264Z,3.47
2019-05-17T18:58:51.866Z,3.60
2019-05-17T19:03:59.920Z,3.30
2019-05-17T19:09:12.194Z,4.13
2019-05-17T19:14:27.016Z,4.60
2019-05-17T19:19:41.667Z,4.60
2019-05-17T19:24:52.216Z,4.93
2019-05-17T19:30:01.110Z,4.97
2019-05-17T19:35:16.247Z,5.30
2019-05-17T19:40:27.528Z,5.17
2019-05-17T19:45:36.273Z,6.13
2019-05-17T19:50:44.722Z,7.10
2019-05-17T19:55:50.459Z,8.27
2019-05-17T20:00:57.734Z,8.40
2019-05-17T20:06:15.552Z,6.47
2019-05-17T20:11:33.551Z,6.50
2019-05-17T20:16:36.953Z,6.30
2019-05-17T20:21:44.755Z,6.23
2019-05-17T20:26:53.509Z,7.43
2019-05-17T20:32:02.279Z,5.67
2019-05-17T20:37:12.060Z,6.20
2019-05-17T20:42:18.019Z,6.20
2019-05-17T20:47:24.099Z,6.80
2019-05-17T20:52:29.800Z,7.13
2019-05-17T20:57:38.132Z,7.27
2019-05-17T21:02:46.226Z,6.50
2019-05-17T21:07:56.086Z,7.03
2019-05-17T21:13:01.792Z,7.60
2019-05-17T21:18:07.714Z,8.40
2019-05-17T21:23:14.142Z,7.97
2019-05-17T21:28:22.503Z,7.93
2019-05-17T21:33:31.458Z,7.60
2019-05-17T21:38:36.979Z,8.83
2019-05-17T21:43:47.253Z,8.60
2019-05-17T21:48:54.971Z,7.80
2019-05-17T21:54:02.851Z,8.40
2019-05-17T21:59:12.902Z,9.80
2019-05-17T22:04:19.534Z,8.57
2019-05-17T22:09:25.477Z,8.77
2019-05-17T22:14:32.442Z,8.20
2019-05-17T22:19:38.039Z,8.37
2019-05-17T22:24:43.526Z,7.27
2019-05-17T22:29:50.783Z,8.10
2019-05-17T22:34:57.478Z,10.23
2019-05-17T22:40:03.344Z,12.53
2019-05-17T22:45:09.387Z,14.70
2019-05-17T22:50:18.180Z,16.03
2019-05-17T22:55:25.503Z,12.50
2019-05-17T23:00:32.204Z,10.43
2019-05-17T23:05:37.755Z,10.40
2019-05-17T23:10:43.755Z,9.97
2019-05-17T23:16:11.273Z,9.77
2019-05-17T23:21:16.775Z,10.87
2019-05-17T23:26:22.341Z,9.40
2019-05-17T23:31:27.916Z,8.60
2019-05-17T23:36:36.905Z,8.20
2019-05-17T23:41:42.499Z,6.60
2019-05-17T23:46:47.941Z,6.80
2019-05-17T23:51:56.191Z,7.33
2019-05-17T23:57:01.899Z,6.97
